createdAt,value
2018-12-27T00:01:53.678Z,16.30
2018-12-27T00:04:21.638Z,16.30
2018-12-27T00:06:49.631Z,16.40
2018-12-27T00:09:17.598Z,16.40
2018-12-27T00:11:45.530Z,16.40
2018-12-27T00:14:13.468Z,16.30
2018-12-27T00:16:41.338Z,16.30
2018-12-27T00:19:10.589Z,16.30
2018-12-27T00:21:38.547Z,16.30
2018-12-27T00:24:06.925Z,16.30
2018-12-27T00:26:34.851Z,16.30
2018-12-27T00:29:03.308Z,16.30
2018-12-27T00:31:31.893Z,16.30
2018-12-27T00:33:59.986Z,16.30
2018-12-27T00:36:28.170Z,16.30
2018-12-27T00:38:56.291Z,16.30
2018-12-27T00:41:24.468Z,16.30
2018-12-27T00:43:52.583Z,16.30
2018-12-27T00:46:20.715Z,16.30
2018-12-27T00:48:48.806Z,16.30
2018-12-27T00:51:16.944Z,16.30
2018-12-27T00:53:45.122Z,16.20
2018-12-27T00:56:13.306Z,16.20
2018-12-27T00:58:41.368Z,16.30
2018-12-27T01:01:09.501Z,16.30
2018-12-27T01:03:38.059Z,16.30
2018-12-27T01:06:06.308Z,16.20
2018-12-27T01:08:34.491Z,16.20
2018-12-27T01:11:02.559Z,16.30
2018-12-27T01:13:30.624Z,16.20
2018-12-27T01:15:58.735Z,16.20
2018-12-27T01:18:26.874Z,16.20
2018-12-27T01:20:54.932Z,16.20
2018-12-27T01:23:23.109Z,16.20
2018-12-27T01:25:51.308Z,16.20
2018-12-27T01:28:19.384Z,16.20
2018-12-27T01:30:47.523Z,16.20
2018-12-27T01:33:18.809Z,16.20
2018-12-27T01:35:46.069Z,16.20
2018-12-27T01:38:14.233Z,16.20
2018-12-27T01:40:42.255Z,16.20
2018-12-27T01:43:10.399Z,16.20
2018-12-27T01:45:38.439Z,16.20
2018-12-27T01:48:06.586Z,16.20
2018-12-27T01:50:34.643Z,16.20
2018-12-27T01:53:02.799Z,16.20
2018-12-27T01:55:30.859Z,16.20
2018-12-27T01:57:59.012Z,16.20
2018-12-27T02:00:27.060Z,16.20
2018-12-27T02:02:55.130Z,16.20
2018-12-27T02:05:23.174Z,16.10
2018-12-27T02:07:51.725Z,16.10
2018-12-27T02:10:20.517Z,16.10
2018-12-27T02:12:48.608Z,16.10
2018-12-27T02:15:16.695Z,16.10
2018-12-27T02:17:44.875Z,16.10
2018-12-27T02:20:12.962Z,16.10
2018-12-27T02:22:40.994Z,16.10
2018-12-27T02:25:09.610Z,16.10
2018-12-27T02:27:37.695Z,16.10
2018-12-27T02:30:05.794Z,16.10
2018-12-27T02:32:34.007Z,16.10
2018-12-27T02:35:02.149Z,16.00
2018-12-27T02:37:30.218Z,16.10
2018-12-27T02:39:58.316Z,16.00
2018-12-27T02:42:26.784Z,16.00
2018-12-27T02:44:55.135Z,16.00
2018-12-27T02:47:23.169Z,16.00
2018-12-27T02:49:51.317Z,16.00
2018-12-27T02:52:19.360Z,16.00
2018-12-27T02:54:47.511Z,16.00
2018-12-27T02:57:15.558Z,16.00
2018-12-27T02:59:43.724Z,16.00
2018-12-27T03:02:11.787Z,16.00
2018-12-27T03:04:39.939Z,16.00
2018-12-27T03:07:07.987Z,16.00
2018-12-27T03:09:36.160Z,16.00
2018-12-27T03:12:04.217Z,16.00
2018-12-27T03:14:33.055Z,16.00
2018-12-27T03:17:01.855Z,16.00
2018-12-27T03:19:30.024Z,16.00
2018-12-27T03:21:58.111Z,16.00
2018-12-27T03:24:26.221Z,16.00
2018-12-27T03:26:54.325Z,16.00
2018-12-27T03:29:22.538Z,16.00
2018-12-27T03:31:50.977Z,16.00
2018-12-27T03:34:19.586Z,16.00
2018-12-27T03:36:48.073Z,16.00
2018-12-27T03:39:16.187Z,16.00
2018-12-27T03:41:44.367Z,16.00
2018-12-27T03:44:12.456Z,16.00
2018-12-27T03:46:40.613Z,16.00
2018-12-27T03:49:09.238Z,16.00
2018-12-27T03:51:37.421Z,15.90
2018-12-27T03:54:05.584Z,15.90
2018-12-27T03:56:33.687Z,15.90
2018-12-27T03:59:02.911Z,15.90
2018-12-27T04:01:31.055Z,15.90
2018-12-27T04:04:01.529Z,15.90
2018-12-27T04:06:30.078Z,15.90
2018-12-27T04:08:58.118Z,15.90
2018-12-27T04:11:26.245Z,15.90
2018-12-27T04:13:54.295Z,15.90
2018-12-27T04:16:22.199Z,15.90
2018-12-27T04:18:50.056Z,15.90
2018-12-27T04:21:18.594Z,15.90
2018-12-27T04:23:46.620Z,15.90
2018-12-27T04:26:15.281Z,15.90
2018-12-27T04:28:43.238Z,15.90
2018-12-27T04:31:11.219Z,15.90
2018-12-27T04:33:39.091Z,15.90
2018-12-27T04:36:07.031Z,15.90
2018-12-27T04:38:35.451Z,15.90
2018-12-27T04:41:03.376Z,15.90
2018-12-27T04:43:33.700Z,15.90
2018-12-27T04:46:03.030Z,15.80
2018-12-27T04:48:30.999Z,15.80
2018-12-27T04:50:58.887Z,15.80
2018-12-27T04:53:27.308Z,15.80
2018-12-27T04:55:55.215Z,15.80
2018-12-27T04:58:23.250Z,15.80
2018-12-27T05:00:52.102Z,15.80
2018-12-27T05:03:20.983Z,15.80
2018-12-27T05:05:49.087Z,15.80
2018-12-27T05:08:17.015Z,15.80
2018-12-27T05:10:44.911Z,15.90
2018-12-27T05:13:12.880Z,15.90
2018-12-27T05:15:40.770Z,16.00
2018-12-27T05:18:08.716Z,16.00
2018-12-27T05:20:36.563Z,16.10
2018-12-27T05:23:04.639Z,16.10
2018-12-27T05:25:33.270Z,16.20
2018-12-27T05:28:01.298Z,16.20
2018-12-27T05:30:29.207Z,16.20
2018-12-27T05:32:57.171Z,16.20
2018-12-27T05:35:25.066Z,16.20
2018-12-27T05:37:52.987Z,16.20
2018-12-27T05:40:20.912Z,16.30
2018-12-27T05:42:49.046Z,16.30
2018-12-27T05:45:16.951Z,16.30
2018-12-27T05:47:45.721Z,16.30
2018-12-27T05:50:14.330Z,16.30
2018-12-27T05:52:44.431Z,16.30
2018-12-27T05:55:14.072Z,16.40
2018-12-27T05:57:41.938Z,16.30
2018-12-27T06:00:10.272Z,16.40
2018-12-27T06:02:38.857Z,16.40
2018-12-27T06:05:06.756Z,16.40
2018-12-27T06:07:35.699Z,16.40
2018-12-27T06:10:04.036Z,16.40
2018-12-27T06:12:32.087Z,16.40
2018-12-27T06:15:01.182Z,16.40
2018-12-27T06:17:29.111Z,16.40
2018-12-27T06:19:57.000Z,16.50
2018-12-27T06:22:25.134Z,16.50
2018-12-27T06:24:53.016Z,16.50
2018-12-27T06:27:20.989Z,16.50
2018-12-27T06:29:48.850Z,16.50
2018-12-27T06:32:18.390Z,16.50
2018-12-27T06:34:47.074Z,16.50
2018-12-27T06:37:15.036Z,16.50
2018-12-27T06:39:43.003Z,16.60
2018-12-27T06:42:10.890Z,16.60
2018-12-27T06:44:38.810Z,16.60
2018-12-27T06:47:07.958Z,16.60
2018-12-27T06:49:36.015Z,16.60
2018-12-27T06:52:03.916Z,16.60
2018-12-27T06:54:32.723Z,16.60
2018-12-27T06:57:00.688Z,16.60
2018-12-27T06:59:28.594Z,16.60
2018-12-27T07:01:57.244Z,16.60
2018-12-27T07:04:25.692Z,16.60
2018-12-27T07:06:54.265Z,16.60
2018-12-27T07:09:23.998Z,16.60
2018-12-27T07:11:51.952Z,16.60
2018-12-27T07:14:19.863Z,16.60
2018-12-27T07:16:47.823Z,16.60
2018-12-27T07:19:15.815Z,16.70
2018-12-27T07:21:44.891Z,16.70
2018-12-27T07:24:12.879Z,16.60
2018-12-27T07:26:41.375Z,16.60
2018-12-27T07:29:09.505Z,16.60
2018-12-27T07:31:37.451Z,16.60
2018-12-27T07:34:05.330Z,16.60
2018-12-27T07:36:33.347Z,16.60
2018-12-27T07:39:01.765Z,16.70
2018-12-27T07:41:30.479Z,16.60
2018-12-27T07:43:58.371Z,16.60
2018-12-27T07:46:26.242Z,16.60
2018-12-27T07:48:54.167Z,16.60
2018-12-27T07:51:22.214Z,16.60
2018-12-27T07:53:50.095Z,16.60
2018-12-27T07:56:18.195Z,16.60
2018-12-27T07:58:46.190Z,16.60
2018-12-27T08:01:14.234Z,16.60
2018-12-27T08:03:42.216Z,16.60
2018-12-27T08:06:10.156Z,16.60
2018-12-27T08:08:38.095Z,16.60
2018-12-27T08:11:07.214Z,16.60
2018-12-27T08:13:35.592Z,16.60
2018-12-27T08:16:03.561Z,16.60
2018-12-27T08:18:31.461Z,16.60
2018-12-27T08:20:59.375Z,16.60
2018-12-27T08:23:27.294Z,16.60
2018-12-27T08:25:55.342Z,16.60
2018-12-27T08:28:23.276Z,16.60
2018-12-27T08:30:51.202Z,16.60
2018-12-27T08:33:19.213Z,16.60
2018-12-27T08:35:47.196Z,16.60
2018-12-27T08:38:16.963Z,16.60
2018-12-27T08:40:44.992Z,16.60
2018-12-27T08:43:14.100Z,16.60
2018-12-27T08:45:42.888Z,16.60
2018-12-27T08:48:11.582Z,16.60
2018-12-27T08:50:40.158Z,16.60
2018-12-27T08:53:08.148Z,16.60
2018-12-27T08:55:36.171Z,16.60
2018-12-27T08:58:04.079Z,16.60
2018-12-27T09:00:32.081Z,16.60
2018-12-27T09:03:00.004Z,16.60
2018-12-27T09:05:27.939Z,16.60
2018-12-27T09:07:55.948Z,16.60
2018-12-27T09:10:24.181Z,16.60
2018-12-27T09:12:52.199Z,16.60
2018-12-27T09:15:20.235Z,16.60
2018-12-27T09:17:48.233Z,16.60
2018-12-27T09:20:16.479Z,16.60
2018-12-27T09:22:44.479Z,16.60
2018-12-27T09:25:14.202Z,16.60
2018-12-27T09:27:42.878Z,16.60
2018-12-27T09:30:10.914Z,16.60
2018-12-27T09:32:40.089Z,16.60
2018-12-27T09:35:09.173Z,16.60
2018-12-27T09:37:37.205Z,16.60
2018-12-27T09:40:05.223Z,16.60
2018-12-27T09:42:33.252Z,16.60
2018-12-27T09:45:01.275Z,16.60
2018-12-27T09:47:29.270Z,16.60
2018-12-27T09:49:57.318Z,16.50
2018-12-27T09:52:26.613Z,16.50
2018-12-27T09:54:54.519Z,16.50
2018-12-27T09:57:23.900Z,16.60
2018-12-27T09:59:52.527Z,16.50
2018-12-27T10:02:21.008Z,16.60
2018-12-27T10:04:49.016Z,16.60
2018-12-27T10:07:17.966Z,16.60
2018-12-27T10:09:46.065Z,16.60
2018-12-27T10:12:14.092Z,16.50
2018-12-27T10:14:42.015Z,16.60
2018-12-27T10:17:09.903Z,16.60
2018-12-27T10:19:37.904Z,16.60
2018-12-27T10:22:05.848Z,16.60
2018-12-27T10:24:33.867Z,16.50
2018-12-27T10:27:01.746Z,16.50
2018-12-27T10:29:29.707Z,16.50
2018-12-27T10:31:58.157Z,16.60
2018-12-27T10:34:26.561Z,16.60
2018-12-27T10:37:13.655Z,16.50
2018-12-27T10:40:00.954Z,16.50
2018-12-27T10:42:48.042Z,16.60
2018-12-27T10:45:35.144Z,16.50
2018-12-27T10:51:28.691Z,16.50
2018-12-27T10:54:15.812Z,16.50
2018-12-27T10:57:02.894Z,16.50
2018-12-27T10:59:50.035Z,16.50
2018-12-27T11:02:37.186Z,16.50
2018-12-27T13:04:31.082Z,16.20
2018-12-27T13:06:58.967Z,16.20
2018-12-27T13:09:26.808Z,16.20
2018-12-27T13:11:54.641Z,16.20
2018-12-27T13:14:22.540Z,16.20
2018-12-27T13:16:50.350Z,16.20
2018-12-27T13:19:18.215Z,16.20
2018-12-27T13:21:46.045Z,16.20
2018-12-27T13:24:13.916Z,16.20
2018-12-27T13:26:41.759Z,16.20
2018-12-27T13:29:09.611Z,16.20
2018-12-27T13:31:37.568Z,16.10
2018-12-27T13:34:05.431Z,16.20
2018-12-27T13:36:33.387Z,16.10
2018-12-27T13:39:01.237Z,16.10
2018-12-27T13:41:29.086Z,16.10
2018-12-27T13:43:56.979Z,16.10
2018-12-27T13:46:24.894Z,16.10
2018-12-27T13:48:52.811Z,16.10
2018-12-27T13:51:21.712Z,16.10
2018-12-27T13:53:49.674Z,16.10
2018-12-27T13:56:17.591Z,16.10
2018-12-27T13:58:45.820Z,16.10
2018-12-27T14:01:13.655Z,16.10
2018-12-27T14:03:41.661Z,16.10
2018-12-27T14:06:09.575Z,16.10
2018-12-27T14:08:37.471Z,16.10
2018-12-27T14:11:05.327Z,16.10
2018-12-27T14:13:33.316Z,16.00
2018-12-27T14:16:01.172Z,16.00
2018-12-27T14:18:29.062Z,16.00
2018-12-27T14:20:56.966Z,16.00
2018-12-27T14:23:24.845Z,16.00
2018-12-27T14:25:52.685Z,16.00
2018-12-27T14:28:20.546Z,16.00
2018-12-27T14:30:48.379Z,16.00
2018-12-27T14:33:16.205Z,16.00
2018-12-27T14:35:44.131Z,16.00
2018-12-27T14:38:12.003Z,16.00
2018-12-27T14:40:39.885Z,16.00
2018-12-27T14:43:07.732Z,16.00
2018-12-27T14:45:35.577Z,16.00
2018-12-27T14:48:03.458Z,16.00
2018-12-27T14:50:34.104Z,16.00
2018-12-27T14:53:01.995Z,16.00
2018-12-27T14:55:29.888Z,16.00
2018-12-27T14:57:57.799Z,16.00
2018-12-27T15:00:25.715Z,16.00
2018-12-27T15:02:55.483Z,16.00
2018-12-27T15:05:23.310Z,16.00
2018-12-27T15:07:51.177Z,15.90
2018-12-27T15:10:18.985Z,16.00
2018-12-27T15:12:46.855Z,15.90
2018-12-27T15:15:14.688Z,15.90
2018-12-27T15:17:42.575Z,15.90
2018-12-27T15:20:10.404Z,15.90
2018-12-27T15:22:38.190Z,15.90
2018-12-27T15:25:06.022Z,15.90
2018-12-27T15:27:33.822Z,15.90
2018-12-27T15:30:01.704Z,15.90
2018-12-27T15:32:29.591Z,15.90
2018-12-27T15:35:05.470Z,15.90
2018-12-27T15:37:33.299Z,15.90
2018-12-27T15:40:01.167Z,15.90
2018-12-27T15:42:28.971Z,15.90
2018-12-27T15:44:56.854Z,15.90
2018-12-27T15:47:24.635Z,15.90
2018-12-27T15:49:52.643Z,15.90
2018-12-27T15:52:20.446Z,15.90
2018-12-27T15:54:48.278Z,15.90
2018-12-27T15:57:16.088Z,15.90
2018-12-27T15:59:43.923Z,15.90
2018-12-27T16:02:11.883Z,15.90
2018-12-27T16:04:39.796Z,15.90
2018-12-27T16:07:07.629Z,15.90
2018-12-27T16:09:35.483Z,15.90
2018-12-27T16:12:03.286Z,15.90
2018-12-27T16:14:33.546Z,15.80
2018-12-27T16:17:01.347Z,15.80
2018-12-27T16:19:29.184Z,15.90
2018-12-27T16:21:57.062Z,15.80
2018-12-27T16:24:24.922Z,15.80
2018-12-27T16:26:52.692Z,15.80
2018-12-27T16:29:20.559Z,15.80
2018-12-27T16:31:48.387Z,15.80
2018-12-27T16:34:16.259Z,15.80
2018-12-27T16:36:44.059Z,15.80
2018-12-27T16:39:11.893Z,15.90
2018-12-27T16:41:39.711Z,15.90
2018-12-27T16:44:07.560Z,15.90
2018-12-27T16:46:35.355Z,15.90
2018-12-27T16:49:03.244Z,16.00
2018-12-27T16:51:31.095Z,16.00
2018-12-27T16:53:58.930Z,16.00
2018-12-27T16:56:26.807Z,16.00
2018-12-27T16:58:54.668Z,16.00
2018-12-27T17:01:22.462Z,16.10
2018-12-27T17:03:50.304Z,16.10
2018-12-27T17:06:18.130Z,16.10
2018-12-27T17:08:46.418Z,16.10
2018-12-27T17:11:14.262Z,16.10
2018-12-27T17:13:42.178Z,16.10
2018-12-27T17:16:09.971Z,16.20
2018-12-27T17:18:37.803Z,16.20
2018-12-27T17:21:05.659Z,16.20
2018-12-27T17:23:33.552Z,16.20
2018-12-27T17:26:01.602Z,16.20
2018-12-27T17:28:29.451Z,16.10
2018-12-27T17:30:57.262Z,15.80
2018-12-27T17:33:25.053Z,15.90
2018-12-27T17:35:52.890Z,15.90
2018-12-27T17:38:20.686Z,16.00
2018-12-27T17:40:53.642Z,16.10
2018-12-27T17:43:21.472Z,16.10
2018-12-27T17:45:49.288Z,16.10
2018-12-27T17:48:17.155Z,16.20
2018-12-27T17:50:44.970Z,16.20
2018-12-27T17:53:13.607Z,16.20
2018-12-27T17:55:41.434Z,16.20
2018-12-27T17:58:09.364Z,16.20
2018-12-27T18:00:41.495Z,16.20
2018-12-27T18:03:11.339Z,16.20
2018-12-27T18:05:39.161Z,16.20
2018-12-27T18:08:08.135Z,16.20
2018-12-27T18:10:38.103Z,16.20
2018-12-27T18:13:05.972Z,16.30
2018-12-27T18:15:33.819Z,16.30
2018-12-27T18:18:01.680Z,16.30
2018-12-27T18:20:29.574Z,16.30
2018-12-27T18:22:58.459Z,16.30
2018-12-27T18:25:29.384Z,16.30
2018-12-27T18:28:01.355Z,16.30
2018-12-27T18:30:29.307Z,16.30
2018-12-27T18:32:57.282Z,16.30
2018-12-27T18:35:26.234Z,16.30
2018-12-27T18:37:54.059Z,16.30
2018-12-27T18:40:21.963Z,16.30
2018-12-27T18:42:50.902Z,16.30
2018-12-27T18:45:18.757Z,16.20
2018-12-27T18:47:52.876Z,16.30
2018-12-27T18:50:20.747Z,16.30
2018-12-27T18:52:48.583Z,16.20
2018-12-27T18:55:20.074Z,16.30
2018-12-27T18:57:45.992Z,16.30
2018-12-27T19:00:14.047Z,16.20
2018-12-27T19:02:42.313Z,16.30
2018-12-27T19:05:29.658Z,16.30
2018-12-27T19:08:16.846Z,16.30
2018-12-27T19:11:03.968Z,16.30
2018-12-27T19:13:51.185Z,16.30
2018-12-27T19:16:38.288Z,16.30
2018-12-27T19:19:25.371Z,16.30
2018-12-27T19:22:12.522Z,16.30
2018-12-27T19:24:59.616Z,16.30
2018-12-27T19:27:46.724Z,16.30
2018-12-27T19:30:33.863Z,16.30
2018-12-27T19:33:44.869Z,16.30
2018-12-27T19:36:14.398Z,16.40
2018-12-27T19:39:01.479Z,16.40
2018-12-27T19:41:48.847Z,16.40
2018-12-27T19:44:35.939Z,16.30
2018-12-27T19:47:23.117Z,16.30
2018-12-27T19:49:51.042Z,16.30
2018-12-27T19:52:38.167Z,16.30
2018-12-27T19:55:05.981Z,16.20
2018-12-27T19:57:53.075Z,16.30
2018-12-27T20:00:40.252Z,16.20
2018-12-27T20:03:27.331Z,16.20
2018-12-27T20:06:14.526Z,16.20
2018-12-27T20:09:01.619Z,16.20
2018-12-27T20:11:48.867Z,16.20
2018-12-27T20:14:35.962Z,16.20
2018-12-27T20:17:23.139Z,16.20
2018-12-27T20:20:10.227Z,16.20
2018-12-27T20:22:57.440Z,16.20
2018-12-27T20:25:44.562Z,16.20
2018-12-27T20:28:32.743Z,16.20
2018-12-27T20:31:20.504Z,16.20
2018-12-27T20:34:07.612Z,16.20
2018-12-27T20:36:54.751Z,16.10
2018-12-27T20:39:41.864Z,15.90
2018-12-27T20:42:28.958Z,15.80
2018-12-27T20:45:16.589Z,15.80
2018-12-27T21:47:37.937Z,15.90
2018-12-27T21:50:25.058Z,15.90
2018-12-27T21:53:12.211Z,15.90
2018-12-27T21:55:39.987Z,15.90
2018-12-27T21:58:27.104Z,15.90
2018-12-27T22:01:14.439Z,15.90
2018-12-27T22:04:02.119Z,15.90
2018-12-27T22:06:49.461Z,15.90
2018-12-27T22:09:36.680Z,15.90
2018-12-27T22:12:23.802Z,15.90
2018-12-27T22:14:51.656Z,15.90
2018-12-27T22:17:19.496Z,15.90
2018-12-27T22:19:47.290Z,15.90
2018-12-27T22:22:15.614Z,15.90
2018-12-27T22:24:43.407Z,15.90
2018-12-27T22:27:19.190Z,15.90
2018-12-27T22:29:47.024Z,15.90
2018-12-27T22:32:14.845Z,15.80
2018-12-27T22:34:42.651Z,15.80
2018-12-27T22:37:19.550Z,15.80
2018-12-27T22:39:47.343Z,15.80
2018-12-27T22:42:15.155Z,15.80
2018-12-27T22:44:42.984Z,15.80
2018-12-27T22:47:10.784Z,15.80
2018-12-27T22:49:38.606Z,15.80
2018-12-27T22:52:06.390Z,15.80
2018-12-27T22:54:34.200Z,15.80
2018-12-27T22:57:01.998Z,15.80
2018-12-27T22:59:29.870Z,15.80
2018-12-27T23:01:57.800Z,15.80
2018-12-27T23:04:25.831Z,15.80
2018-12-27T23:06:55.123Z,15.80
2018-12-27T23:09:23.439Z,15.80
2018-12-27T23:11:57.460Z,15.80
2018-12-27T23:14:25.528Z,15.80
2018-12-27T23:16:53.392Z,15.80
2018-12-27T23:19:21.256Z,15.90
2018-12-27T23:21:49.047Z,15.90
2018-12-27T23:24:16.857Z,15.80
2018-12-27T23:26:44.642Z,15.80
2018-12-27T23:29:12.730Z,15.80
2018-12-27T23:31:40.547Z,15.80
2018-12-27T23:34:08.379Z,15.80
2018-12-27T23:36:36.247Z,15.80
2018-12-27T23:39:05.777Z,15.80
2018-12-27T23:41:33.596Z,15.80
2018-12-27T23:44:01.420Z,15.80
2018-12-27T23:46:29.235Z,15.80
2018-12-27T23:48:57.143Z,15.70
2018-12-27T23:51:24.938Z,15.80
2018-12-27T23:53:52.767Z,15.80
2018-12-27T23:56:20.564Z,15.80
2018-12-27T23:58:48.390Z,15.80
